createdAt,value
2022-07-29T00:02:00.204Z,45.31
2022-07-29T00:04:32.210Z,45.68
2022-07-29T00:07:04.209Z,45.41
2022-07-29T00:09:43.037Z,45.59
2022-07-29T00:12:27.052Z,45.58
2022-07-29T00:14:59.425Z,46.07
2022-07-29T00:17:31.087Z,46.36
2022-07-29T00:20:02.868Z,46.13
2022-07-29T00:22:34.670Z,46.59
2022-07-29T00:25:07.382Z,46.77
2022-07-29T00:27:39.504Z,46.56
2022-07-29T00:30:14.298Z,46.78
2022-07-29T00:32:45.980Z,46.95
2022-07-29T00:35:35.497Z,47.06
2022-07-29T00:38:07.185Z,46.92
2022-07-29T00:40:39.049Z,47.19
2022-07-29T00:43:15.894Z,46.97
2022-07-29T00:45:47.652Z,47.06
2022-07-29T00:48:19.428Z,47.57
2022-07-29T00:50:52.983Z,47.51
2022-07-29T00:53:25.683Z,47.68
2022-07-29T00:55:59.537Z,47.65
2022-07-29T00:58:31.395Z,47.81
2022-07-29T01:01:03.184Z,47.91
2022-07-29T01:03:34.938Z,47.87
2022-07-29T01:06:07.695Z,47.93
2022-07-29T01:08:39.838Z,48.86
2022-07-29T01:11:12.150Z,48.27
2022-07-29T01:13:44.253Z,48.39
2022-07-29T01:16:23.268Z,48.61
2022-07-29T01:19:02.989Z,48.95
2022-07-29T01:21:57.435Z,49.33
2022-07-29T01:24:42.301Z,49.30
2022-07-29T01:27:32.629Z,49.39
2022-07-29T01:30:05.560Z,49.35
2022-07-29T01:32:41.252Z,49.36
2022-07-29T01:35:21.308Z,49.41
2022-07-29T01:37:58.595Z,49.34
2022-07-29T01:40:36.586Z,49.65
2022-07-29T01:43:14.978Z,49.51
2022-07-29T01:45:50.036Z,49.92
2022-07-29T01:48:25.391Z,49.79
2022-07-29T01:51:04.030Z,50.32
2022-07-29T01:53:40.953Z,50.28
2022-07-29T01:56:14.481Z,50.22
2022-07-29T01:58:47.834Z,50.31
2022-07-29T02:01:20.505Z,50.37
2022-07-29T02:03:53.681Z,50.52
2022-07-29T02:06:27.670Z,50.63
2022-07-29T02:09:00.785Z,51.07
2022-07-29T02:11:35.452Z,51.03
2022-07-29T02:14:09.427Z,51.14
2022-07-29T02:16:42.994Z,51.25
2022-07-29T02:19:16.876Z,51.24
2022-07-29T02:21:49.833Z,51.28
2022-07-29T02:24:23.109Z,51.63
2022-07-29T02:26:57.582Z,51.88
2022-07-29T02:29:31.539Z,52.08
2022-07-29T02:32:05.502Z,52.21
2022-07-29T02:34:38.070Z,51.78
2022-07-29T02:37:12.531Z,51.83
2022-07-29T02:39:46.967Z,52.18
2022-07-29T02:42:19.809Z,52.35
2022-07-29T02:44:52.094Z,52.71
2022-07-29T02:47:31.129Z,52.61
2022-07-29T02:50:19.920Z,52.45
2022-07-29T02:52:58.758Z,52.81
2022-07-29T02:55:36.078Z,53.01
2022-07-29T02:58:14.963Z,53.11
2022-07-29T03:00:49.102Z,52.98
2022-07-29T03:03:23.458Z,53.29
2022-07-29T03:05:57.212Z,53.55
2022-07-29T03:08:30.689Z,53.86
2022-07-29T03:11:03.779Z,53.93
2022-07-29T03:13:37.182Z,54.15
2022-07-29T03:16:14.090Z,53.49
2022-07-29T03:18:45.967Z,53.94
2022-07-29T03:21:17.777Z,54.15
2022-07-29T03:23:49.370Z,54.14
2022-07-29T03:26:21.168Z,54.23
2022-07-29T03:28:52.876Z,54.48
2022-07-29T03:31:25.610Z,55.48
2022-07-29T03:33:58.597Z,55.78
2022-07-29T03:36:30.561Z,55.18
2022-07-29T03:39:04.240Z,55.88
2022-07-29T03:41:37.561Z,55.96
2022-07-29T03:44:09.826Z,55.04
2022-07-29T03:46:45.392Z,54.99
2022-07-29T03:49:19.256Z,55.32
2022-07-29T03:51:51.459Z,55.44
2022-07-29T03:54:23.282Z,55.17
2022-07-29T03:56:56.810Z,55.40
2022-07-29T03:59:29.797Z,55.76
2022-07-29T04:02:35.275Z,55.73
2022-07-29T04:05:13.575Z,55.66
2022-07-29T04:07:47.729Z,56.27
2022-07-29T04:10:28.308Z,56.29
2022-07-29T04:13:03.804Z,56.21
2022-07-29T04:15:35.649Z,56.11
2022-07-29T04:18:07.560Z,54.40
2022-07-29T04:20:39.408Z,50.99
2022-07-29T04:23:11.381Z,48.72
2022-07-29T04:25:43.760Z,45.93
2022-07-29T04:28:15.967Z,44.57
2022-07-29T04:30:48.853Z,43.46
2022-07-29T04:33:20.675Z,42.53
2022-07-29T04:35:55.034Z,42.23
2022-07-29T04:38:27.420Z,39.38
2022-07-29T04:40:58.987Z,39.67
2022-07-29T04:43:30.958Z,38.66
2022-07-29T04:46:10.242Z,36.92
2022-07-29T04:48:42.289Z,38.02
2022-07-29T04:51:14.118Z,36.82
2022-07-29T04:53:46.798Z,35.30
2022-07-29T04:56:18.954Z,35.30
2022-07-29T04:58:50.832Z,33.73
2022-07-29T05:01:22.649Z,33.43
2022-07-29T05:03:59.900Z,32.03
2022-07-29T05:06:32.150Z,30.99
2022-07-29T05:09:04.112Z,28.75
2022-07-29T05:11:35.829Z,29.94
2022-07-29T05:14:07.485Z,29.10
2022-07-29T05:16:40.260Z,29.83
2022-07-29T05:19:14.346Z,28.31
2022-07-29T05:21:47.962Z,28.21
2022-07-29T05:24:20.185Z,28.69
2022-07-29T05:26:51.976Z,27.98
2022-07-29T05:29:42.776Z,29.65
2022-07-29T05:32:15.289Z,29.50
2022-07-29T05:34:50.306Z,29.99
2022-07-29T05:37:23.867Z,31.02
2022-07-29T05:39:56.552Z,32.55
2022-07-29T05:42:30.232Z,32.97
2022-07-29T05:45:02.176Z,33.52
2022-07-29T05:47:33.923Z,33.82
2022-07-29T05:50:07.673Z,34.57
2022-07-29T05:52:39.998Z,35.29
2022-07-29T05:55:14.525Z,35.70
2022-07-29T05:57:46.697Z,36.02
2022-07-29T06:00:19.945Z,36.63
2022-07-29T06:02:51.625Z,36.76
2022-07-29T06:05:23.353Z,36.96
2022-07-29T06:07:55.238Z,37.32
2022-07-29T06:10:27.988Z,37.68
2022-07-29T06:12:59.696Z,37.94
2022-07-29T06:15:31.468Z,38.08
2022-07-29T06:18:03.269Z,38.45
2022-07-29T06:20:35.345Z,38.67
2022-07-29T06:23:07.913Z,38.62
2022-07-29T06:25:40.577Z,38.35
2022-07-29T06:28:12.556Z,38.54
2022-07-29T06:30:44.390Z,38.75
2022-07-29T06:33:21.166Z,38.89
2022-07-29T06:35:53.656Z,38.91
2022-07-29T06:38:30.794Z,39.04
2022-07-29T06:41:05.010Z,39.09
2022-07-29T06:43:50.302Z,39.04
2022-07-29T06:46:25.561Z,38.96
2022-07-29T06:48:57.444Z,38.96
2022-07-29T06:51:29.763Z,38.96
2022-07-29T06:54:03.212Z,38.96
2022-07-29T06:56:44.654Z,38.62
2022-07-29T06:59:16.642Z,38.72
2022-07-29T07:01:48.287Z,38.78
2022-07-29T07:04:20.673Z,38.50
2022-07-29T07:06:52.683Z,38.64
2022-07-29T07:09:24.431Z,38.72
2022-07-29T07:11:56.065Z,38.64
2022-07-29T07:14:29.094Z,38.49
2022-07-29T07:17:01.689Z,37.84
2022-07-29T07:19:33.567Z,37.51
2022-07-29T07:22:05.422Z,37.54
2022-07-29T07:24:37.115Z,37.49
2022-07-29T07:27:08.723Z,37.08
2022-07-29T07:29:42.174Z,37.03
2022-07-29T07:32:17.329Z,36.76
2022-07-29T07:34:48.955Z,36.76
2022-07-29T07:37:21.615Z,36.60
2022-07-29T07:39:53.410Z,36.47
2022-07-29T07:42:25.509Z,36.05
2022-07-29T07:45:12.643Z,36.14
2022-07-29T07:47:45.492Z,36.26
2022-07-29T07:50:19.295Z,35.76
2022-07-29T07:52:53.230Z,35.73
2022-07-29T07:55:25.531Z,35.97
2022-07-29T07:57:57.573Z,35.58
2022-07-29T08:00:29.464Z,35.92
2022-07-29T08:03:04.747Z,36.09
2022-07-29T08:05:48.603Z,36.23
2022-07-29T08:08:20.396Z,35.76
2022-07-29T08:10:54.902Z,35.20
2022-07-29T08:13:29.402Z,35.57
2022-07-29T08:16:02.815Z,35.46
2022-07-29T08:18:34.874Z,35.15
2022-07-29T08:21:07.183Z,34.94
2022-07-29T08:23:46.533Z,34.67
2022-07-29T08:26:21.906Z,34.43
2022-07-29T08:28:53.573Z,34.35
2022-07-29T08:31:25.437Z,34.10
2022-07-29T08:34:00.863Z,34.56
2022-07-29T08:36:32.670Z,33.69
2022-07-29T08:39:05.057Z,33.75
2022-07-29T08:41:37.298Z,33.98
2022-07-29T08:44:09.262Z,34.22
2022-07-29T08:46:42.295Z,33.42
2022-07-29T08:49:14.055Z,33.29
2022-07-29T08:51:49.370Z,33.53
2022-07-29T08:54:23.552Z,33.60
2022-07-29T08:56:56.390Z,33.64
2022-07-29T08:59:31.315Z,33.55
2022-07-29T09:02:03.789Z,33.22
2022-07-29T09:04:38.144Z,32.54
2022-07-29T09:07:11.127Z,32.88
2022-07-29T09:09:43.800Z,32.41
2022-07-29T09:12:28.809Z,32.60
2022-07-29T09:15:01.725Z,31.49
2022-07-29T09:17:47.386Z,32.20
2022-07-29T09:20:23.391Z,31.42
2022-07-29T09:22:55.402Z,30.84
2022-07-29T09:25:40.411Z,31.49
2022-07-29T09:28:13.453Z,30.92
2022-07-29T09:30:56.256Z,30.70
2022-07-29T09:33:36.768Z,30.33
2022-07-29T09:36:12.512Z,30.06
2022-07-29T09:38:44.215Z,29.82
2022-07-29T09:41:16.015Z,29.12
2022-07-29T09:43:59.184Z,30.01
2022-07-29T09:46:31.078Z,29.50
2022-07-29T09:49:13.610Z,29.62
2022-07-29T09:51:45.457Z,29.65
2022-07-29T09:54:26.847Z,29.40
2022-07-29T09:56:59.035Z,29.19
2022-07-29T09:59:30.961Z,28.74
2022-07-29T10:02:03.275Z,28.47
2022-07-29T10:04:45.223Z,29.20
2022-07-29T10:07:16.938Z,29.14
2022-07-29T10:09:56.839Z,29.39
2022-07-29T10:12:28.583Z,29.56
2022-07-29T10:15:00.545Z,29.18
2022-07-29T10:17:32.671Z,29.10
2022-07-29T10:20:08.269Z,29.11
2022-07-29T10:22:53.105Z,28.51
2022-07-29T10:25:26.440Z,29.00
2022-07-29T10:27:58.367Z,29.16
2022-07-29T10:30:30.331Z,28.21
2022-07-29T10:33:18.959Z,28.06
2022-07-29T10:36:04.239Z,28.60
2022-07-29T10:38:48.029Z,27.94
2022-07-29T10:41:58.673Z,27.23
2022-07-29T10:44:31.236Z,25.88
2022-07-29T10:47:03.779Z,26.82
2022-07-29T10:49:35.600Z,26.63
2022-07-29T10:52:09.083Z,25.67
2022-07-29T10:54:46.212Z,25.80
2022-07-29T10:57:53.859Z,26.85
2022-07-29T11:00:36.653Z,26.73
2022-07-29T11:03:10.832Z,26.67
2022-07-29T11:06:00.126Z,26.84
2022-07-29T11:08:31.981Z,26.29
2022-07-29T11:11:36.769Z,26.64
2022-07-29T11:14:10.413Z,27.08
2022-07-29T11:17:08.292Z,27.10
2022-07-29T11:19:46.788Z,26.69
2022-07-29T11:22:46.074Z,25.78
2022-07-29T11:25:50.251Z,25.90
2022-07-29T11:28:23.174Z,26.21
2022-07-29T11:30:57.810Z,26.22
2022-07-29T11:33:37.522Z,26.27
2022-07-29T11:36:28.229Z,25.90
2022-07-29T11:39:36.414Z,26.01
2022-07-29T11:42:44.597Z,25.23
2022-07-29T11:45:44.094Z,25.93
2022-07-29T11:48:28.887Z,26.91
2022-07-29T11:51:11.380Z,26.68
2022-07-29T11:53:52.526Z,27.01
2022-07-29T11:56:28.532Z,25.85
2022-07-29T11:59:08.438Z,25.17
2022-07-29T12:02:02.451Z,25.48
2022-07-29T12:04:53.774Z,26.27
2022-07-29T12:07:33.688Z,26.15
2022-07-29T12:10:11.491Z,26.44
2022-07-29T12:12:55.942Z,26.62
2022-07-29T12:15:45.816Z,26.60
2022-07-29T12:18:24.177Z,26.37
2022-07-29T12:21:04.783Z,26.84
2022-07-29T12:23:36.927Z,26.81
2022-07-29T12:26:10.898Z,27.15
2022-07-29T12:28:43.022Z,27.35
2022-07-29T12:31:42.739Z,27.10
2022-07-29T12:34:11.379Z,27.18
2022-07-29T12:36:44.754Z,26.98
2022-07-29T12:39:17.514Z,26.28
2022-07-29T12:41:49.497Z,26.27
2022-07-29T12:44:21.260Z,25.89
2022-07-29T12:47:06.436Z,25.21
2022-07-29T12:49:38.375Z,24.80
2022-07-29T12:52:30.943Z,24.78
2022-07-29T12:55:03.624Z,25.74
2022-07-29T12:57:46.949Z,25.08
2022-07-29T13:00:24.241Z,24.51
2022-07-29T13:03:01.219Z,25.01
2022-07-29T13:05:49.073Z,24.92
2022-07-29T13:08:22.275Z,25.22
2022-07-29T13:10:54.845Z,25.76
2022-07-29T13:13:26.541Z,26.04
2022-07-29T13:16:11.803Z,26.11
2022-07-29T13:18:43.503Z,26.26
2022-07-29T13:21:16.619Z,25.54
2022-07-29T13:23:50.905Z,25.77
2022-07-29T13:26:23.296Z,26.12
2022-07-29T13:28:55.747Z,26.57
2022-07-29T13:31:27.666Z,26.61
2022-07-29T13:33:59.759Z,26.46
2022-07-29T13:36:31.377Z,26.57
2022-07-29T13:39:03.762Z,26.57
2022-07-29T13:41:35.462Z,26.52
2022-07-29T13:44:07.147Z,26.81
2022-07-29T13:46:39.495Z,26.04
2022-07-29T13:49:12.446Z,25.98
2022-07-29T13:51:44.102Z,25.24
2022-07-29T13:54:15.686Z,24.97
2022-07-29T13:56:47.457Z,24.74
2022-07-29T13:59:19.084Z,24.25
2022-07-29T14:01:50.924Z,24.58
2022-07-29T14:04:22.642Z,24.60
2022-07-29T14:06:54.440Z,24.65
2022-07-29T14:09:26.226Z,25.07
2022-07-29T14:11:58.094Z,25.38
2022-07-29T14:14:32.675Z,25.41
2022-07-29T14:17:07.593Z,25.63
2022-07-29T14:19:39.958Z,25.96
2022-07-29T14:22:12.197Z,25.67
2022-07-29T14:24:44.298Z,25.82
2022-07-29T14:27:16.093Z,25.95
2022-07-29T14:29:47.818Z,25.92
2022-07-29T14:32:19.538Z,26.41
2022-07-29T14:34:51.276Z,26.53
2022-07-29T14:37:23.206Z,26.88
2022-07-29T14:39:55.632Z,26.80
2022-07-29T14:42:27.397Z,26.76
2022-07-29T14:44:58.964Z,26.73
2022-07-29T14:47:30.844Z,26.64
2022-07-29T14:50:02.474Z,26.62
2022-07-29T14:52:34.167Z,26.19
2022-07-29T14:55:16.535Z,25.99
2022-07-29T14:57:55.440Z,26.14
2022-07-29T15:00:33.344Z,26.08
2022-07-29T15:03:05.614Z,26.28
2022-07-29T15:05:37.765Z,26.02
2022-07-29T15:08:10.264Z,26.13
2022-07-29T15:10:41.877Z,26.01
2022-07-29T15:13:13.537Z,26.18
2022-07-29T15:15:45.542Z,25.96
2022-07-29T15:18:17.124Z,25.83
2022-07-29T15:20:55.939Z,25.91
2022-07-29T15:23:27.681Z,26.13
2022-07-29T15:25:59.252Z,26.37
2022-07-29T15:28:31.017Z,26.15
2022-07-29T15:31:03.144Z,25.90
2022-07-29T15:33:34.873Z,25.85
2022-07-29T15:36:06.842Z,25.76
2022-07-29T15:38:40.500Z,25.95
2022-07-29T15:41:16.998Z,26.26
2022-07-29T15:43:48.913Z,26.24
2022-07-29T15:46:39.110Z,26.28
2022-07-29T15:49:11.236Z,26.23
2022-07-29T15:51:43.020Z,26.32
2022-07-29T15:54:14.701Z,26.41
2022-07-29T15:56:46.440Z,26.36
2022-07-29T15:59:22.298Z,26.20
2022-07-29T16:01:54.596Z,26.01
2022-07-29T16:04:26.790Z,25.89
2022-07-29T16:06:59.435Z,26.07
2022-07-29T16:09:31.504Z,26.06
2022-07-29T16:12:03.222Z,25.85
2022-07-29T16:14:42.396Z,25.79
2022-07-29T16:17:15.013Z,25.64
2022-07-29T16:19:47.213Z,25.75
2022-07-29T16:22:18.891Z,25.88
2022-07-29T16:24:50.710Z,26.01
2022-07-29T16:27:24.922Z,26.33
2022-07-29T16:29:56.798Z,25.87
2022-07-29T16:32:28.592Z,26.18
2022-07-29T16:35:02.213Z,26.14
2022-07-29T16:37:36.634Z,26.03
2022-07-29T16:40:12.796Z,26.28
2022-07-29T16:42:46.912Z,26.29
2022-07-29T16:45:21.133Z,26.24
2022-07-29T16:48:00.057Z,26.14
2022-07-29T16:50:33.064Z,26.36
2022-07-29T16:53:04.779Z,26.52
2022-07-29T16:55:36.545Z,26.59
2022-07-29T16:58:08.642Z,26.64
2022-07-29T17:00:40.736Z,26.93
2022-07-29T17:03:12.798Z,26.96
2022-07-29T17:05:50.401Z,26.87
2022-07-29T17:08:25.617Z,26.76
2022-07-29T17:10:57.935Z,26.92
2022-07-29T17:13:29.719Z,26.91
2022-07-29T17:16:01.416Z,26.97
2022-07-29T17:18:33.074Z,26.99
2022-07-29T17:21:05.097Z,26.97
2022-07-29T17:23:36.739Z,27.17
2022-07-29T17:26:08.539Z,27.13
2022-07-29T17:28:40.426Z,27.17
2022-07-29T17:31:12.637Z,27.04
2022-07-29T17:33:44.489Z,27.06
2022-07-29T17:36:24.826Z,27.06
2022-07-29T17:38:59.024Z,27.09
2022-07-29T17:41:30.804Z,27.34
2022-07-29T17:44:02.936Z,27.59
2022-07-29T17:46:34.679Z,27.45
2022-07-29T17:49:07.189Z,27.66
2022-07-29T17:51:39.021Z,27.85
2022-07-29T17:54:10.583Z,28.00
2022-07-29T17:56:42.778Z,28.06
2022-07-29T17:59:14.773Z,28.20
2022-07-29T18:01:46.504Z,28.23
2022-07-29T18:04:21.064Z,28.26
2022-07-29T18:06:53.954Z,28.35
2022-07-29T18:09:25.754Z,28.44
2022-07-29T18:11:57.452Z,28.70
2022-07-29T18:14:29.170Z,28.86
2022-07-29T18:17:01.267Z,29.05
2022-07-29T18:19:33.255Z,29.29
2022-07-29T18:22:05.594Z,29.56
2022-07-29T18:24:37.321Z,29.55
2022-07-29T18:27:09.370Z,29.68
2022-07-29T18:29:41.587Z,29.86
2022-07-29T18:32:13.278Z,30.06
2022-07-29T18:34:44.935Z,30.23
2022-07-29T18:37:17.359Z,30.29
2022-07-29T18:40:15.500Z,30.52
2022-07-29T18:42:47.671Z,30.70
2022-07-29T18:45:19.914Z,31.08
2022-07-29T18:47:52.200Z,30.89
2022-07-29T18:50:28.853Z,31.33
2022-07-29T18:53:03.470Z,31.50
2022-07-29T18:55:35.284Z,31.48
2022-07-29T18:58:07.293Z,31.70
2022-07-29T19:00:39.064Z,31.84
2022-07-29T19:03:10.943Z,32.16
2022-07-29T19:05:42.779Z,32.29
2022-07-29T19:08:14.601Z,32.82
2022-07-29T19:10:46.602Z,32.82
2022-07-29T19:13:18.388Z,33.00
2022-07-29T19:15:50.041Z,33.73
2022-07-29T19:18:21.818Z,33.65
2022-07-29T19:20:53.839Z,33.98
2022-07-29T19:23:25.803Z,34.50
2022-07-29T19:25:57.627Z,34.69
2022-07-29T19:28:29.539Z,34.98
2022-07-29T19:31:01.747Z,34.92
2022-07-29T19:33:33.583Z,35.29
2022-07-29T19:36:05.478Z,35.21
2022-07-29T19:38:38.337Z,35.52
2022-07-29T19:41:10.095Z,35.52
2022-07-29T19:43:51.327Z,36.22
2022-07-29T19:46:24.726Z,35.91
2022-07-29T19:48:56.744Z,35.83
2022-07-29T19:51:28.624Z,36.64
2022-07-29T19:54:00.478Z,36.68
2022-07-29T19:56:32.302Z,36.64
2022-07-29T19:59:04.056Z,37.02
2022-07-29T20:01:39.904Z,36.94
2022-07-29T20:04:11.664Z,37.45
2022-07-29T20:06:43.348Z,37.86
2022-07-29T20:09:17.069Z,37.75
2022-07-29T20:11:52.448Z,37.86
2022-07-29T20:14:24.311Z,38.29
2022-07-29T20:16:55.967Z,38.25
2022-07-29T20:19:27.739Z,38.22
2022-07-29T20:21:59.584Z,38.36
2022-07-29T20:24:31.377Z,38.55
2022-07-29T20:27:03.335Z,38.61
2022-07-29T20:29:45.192Z,38.79
2022-07-29T20:32:16.989Z,39.17
2022-07-29T20:34:48.684Z,39.24
2022-07-29T20:37:20.761Z,39.60
2022-07-29T20:39:53.118Z,39.57
2022-07-29T20:42:24.786Z,39.44
2022-07-29T20:44:58.021Z,39.68
2022-07-29T20:47:30.116Z,39.78
2022-07-29T20:50:01.937Z,40.49
2022-07-29T20:52:33.573Z,40.53
2022-07-29T20:55:05.853Z,40.32
2022-07-29T20:57:39.116Z,39.99
2022-07-29T21:00:16.345Z,40.56
2022-07-29T21:02:48.259Z,40.91
2022-07-29T21:05:20.312Z,40.89
2022-07-29T21:07:56.504Z,40.88
2022-07-29T21:10:29.967Z,41.07
2022-07-29T21:13:01.542Z,40.90
2022-07-29T21:15:33.767Z,41.53
2022-07-29T21:18:09.337Z,42.01
2022-07-29T21:20:41.156Z,41.92
2022-07-29T21:23:12.865Z,41.82
2022-07-29T21:25:44.627Z,41.84
2022-07-29T21:28:30.166Z,42.40
2022-07-29T21:31:03.438Z,42.15
2022-07-29T21:33:36.046Z,41.84
2022-07-29T21:36:45.395Z,42.35
2022-07-29T21:39:07.199Z,42.51
2022-07-29T21:41:39.106Z,42.67
2022-07-29T21:44:10.713Z,42.85
2022-07-29T21:46:42.589Z,42.57
2022-07-29T21:49:14.223Z,42.67
2022-07-29T21:51:46.110Z,42.89
2022-07-29T21:54:17.725Z,43.02
2022-07-29T21:56:51.322Z,43.68
2022-07-29T21:59:23.180Z,43.44
2022-07-29T22:01:55.787Z,43.43
2022-07-29T22:04:27.505Z,43.28
2022-07-29T22:07:00.143Z,43.45
2022-07-29T22:09:32.309Z,44.19
2022-07-29T22:12:04.097Z,44.26
2022-07-29T22:14:35.901Z,44.78
2022-07-29T22:17:07.635Z,44.34
2022-07-29T22:19:41.297Z,45.14
2022-07-29T22:22:13.019Z,44.80
2022-07-29T22:24:44.800Z,45.12
2022-07-29T22:27:16.569Z,44.49
2022-07-29T22:29:48.261Z,44.74
2022-07-29T22:32:19.892Z,44.74
2022-07-29T22:34:51.970Z,45.12
2022-07-29T22:37:23.933Z,45.38
2022-07-29T22:39:55.694Z,45.50
2022-07-29T22:42:27.552Z,45.36
2022-07-29T22:44:59.181Z,45.36
2022-07-29T22:47:45.887Z,45.87
2022-07-29T22:50:19.729Z,46.32
2022-07-29T22:52:53.170Z,46.17
2022-07-29T22:55:25.042Z,46.21
2022-07-29T22:57:56.856Z,45.83
2022-07-29T23:00:28.481Z,45.93
2022-07-29T23:03:00.349Z,45.90
2022-07-29T23:05:32.731Z,47.00
2022-07-29T23:08:04.617Z,46.74
2022-07-29T23:10:36.693Z,46.77
2022-07-29T23:13:08.316Z,47.41
2022-07-29T23:15:39.880Z,46.96
2022-07-29T23:18:12.003Z,47.87
2022-07-29T23:20:44.530Z,47.42
2022-07-29T23:23:16.271Z,47.48
2022-07-29T23:25:47.889Z,48.12
2022-07-29T23:28:19.566Z,47.90
2022-07-29T23:30:51.310Z,47.98
2022-07-29T23:33:23.037Z,48.68
2022-07-29T23:35:54.667Z,48.16
2022-07-29T23:38:26.287Z,48.21
2022-07-29T23:40:58.690Z,48.41
2022-07-29T23:43:30.574Z,49.07
2022-07-29T23:46:02.231Z,48.99
2022-07-29T23:48:34.002Z,48.68
2022-07-29T23:51:05.684Z,49.07
2022-07-29T23:53:53.468Z,48.60
2022-07-29T23:56:25.860Z,48.87
2022-07-29T23:58:57.533Z,49.10
